Time;durP1;ratioP1;P1;durP2;ratioP2;P2;SDS_P1;SDS_P2;PMS_P1;PMS_P2;Temp;Humidity;BMP_temperature;BMP_pressure;BME280_temperature;BME280_humidity;BME280_pressure;Samples;Min_cycle;Max_cycle;Signal;HPM_P1;HPM_P2
2023/07/13 00:00:00;;;;;;;5.00;2.67;;;;;;;14.12;63.04;100631.75;1768289;80;21613;-56
2023/07/13 00:03:06;;;;;;;6.55;3.42;;;;;;;14.10;63.25;100629.19;1768617;80;21805;-56
2023/07/13 00:06:13;;;;;;;6.40;3.15;;;;;;;14.10;63.39;100635.20;1768433;80;21879;-55
2023/07/13 00:09:22;;;;;;;5.95;2.80;;;;;;;14.08;63.50;100634.03;1777812;80;21311;-57
2023/07/13 00:12:39;;;;;;;6.58;3.05;;;;;;;14.07;63.61;100627.34;1768923;80;21915;-57
2023/07/13 00:15:45;;;;;;;4.03;2.58;;;;;;;14.04;63.62;100629.97;1768250;80;21347;-56
2023/07/13 00:18:53;;;;;;;4.10;2.40;;;;;;;14.01;63.62;100631.73;1767630;79;21370;-55
2023/07/13 00:22:00;;;;;;;5.42;3.08;;;;;;;13.98;63.73;100631.25;1809611;79;21353;-55
2023/07/13 00:25:06;;;;;;;4.65;2.77;;;;;;;13.93;63.69;100630.97;1800930;79;21173;-55
2023/07/13 00:28:13;;;;;;;6.62;2.75;;;;;;;13.87;63.67;100629.84;1801070;79;21720;-56
2023/07/13 00:31:20;;;;;;;6.50;2.95;;;;;;;13.81;63.58;100638.02;1801973;79;21200;-55
2023/07/13 00:34:26;;;;;;;6.00;3.00;;;;;;;13.72;63.53;100642.75;1801011;79;21681;-55
2023/07/13 00:37:32;;;;;;;7.45;2.77;;;;;;;13.65;63.62;100635.45;1800982;79;21247;-55
2023/07/13 00:40:31;;;;;;;4.80;2.90;;;;;;;13.58;63.68;100629.84;1801489;79;21233;-55
2023/07/13 00:43:38;;;;;;;3.77;2.37;;;;;;;13.56;63.98;100637.42;1769797;80;21840;-56
2023/07/13 00:46:45;;;;;;;6.30;2.80;;;;;;;13.59;64.30;100638.96;1757521;81;21390;-55
2023/07/13 00:49:52;;;;;;;6.97;2.90;;;;;;;13.61;64.55;100639.09;1776861;79;21233;-55
2023/07/13 00:53:01;;;;;;;6.12;2.60;;;;;;;13.59;64.54;100634.84;1800882;79;21362;-55
2023/07/13 00:56:08;;;;;;;4.08;2.87;;;;;;;13.56;64.45;100637.42;1810194;79;21342;-56
2023/07/13 00:59:14;;;;;;;5.53;3.02;;;;;;;13.55;64.61;100635.73;1737396;81;21184;-55
2023/07/13 01:02:19;;;;;;;10.00;3.30;;;;;;;13.57;64.82;100636.91;1809631;79;22179;-55
2023/07/13 01:05:27;;;;;;;4.97;2.87;;;;;;;13.52;64.75;100630.61;1809504;79;21338;-54
2023/07/13 01:08:34;;;;;;;6.33;3.00;;;;;;;13.49;64.73;100628.23;1767662;80;21362;-55
2023/07/13 01:11:41;;;;;;;11.22;2.98;;;;;;;13.44;64.74;100624.68;1767447;80;21188;-55
2023/07/13 01:14:48;;;;;;;5.28;3.10;;;;;;;13.42;64.88;100622.63;1783565;79;21197;-56
2023/07/13 01:17:55;;;;;;;5.12;2.95;;;;;;;13.43;65.09;100614.70;1762191;81;21169;-56
2023/07/13 01:21:10;;;;;;;5.08;3.08;;;;;;;13.41;65.11;100618.16;1775342;78;21326;-57
2023/07/13 01:24:17;;;;;;;5.40;2.98;;;;;;;13.39;65.15;100621.64;1773513;81;21270;-57
2023/07/13 01:27:25;;;;;;;4.20;2.80;;;;;;;13.36;65.30;100635.77;1738429;82;21762;-56
2023/07/13 01:30:35;;;;;;;4.65;3.00;;;;;;;13.36;65.54;100635.77;1676339;82;21224;-56
2023/07/13 01:33:40;;;;;;;6.33;3.45;;;;;;;13.38;65.77;100631.45;1696129;84;21695;-57
2023/07/13 01:36:48;;;;;;;5.83;2.90;;;;;;;13.40;65.84;100628.83;1705082;82;21459;-57
2023/07/13 01:39:54;;;;;;;6.00;2.92;;;;;;;13.40;65.89;100625.22;1656493;85;21222;-56
2023/07/13 01:43:00;;;;;;;8.93;3.30;;;;;;;13.40;65.85;100632.09;1657826;85;21803;-56
2023/07/13 01:46:06;;;;;;;5.33;3.20;;;;;;;13.37;65.84;100633.34;1660245;85;21295;-56
2023/07/13 01:49:14;;;;;;;7.40;2.80;;;;;;;13.37;65.93;100630.59;1693213;84;21195;-56
2023/07/13 01:52:20;;;;;;;6.55;3.20;;;;;;;13.34;65.84;100624.60;1686518;84;21388;-56
2023/07/13 01:55:26;;;;;;;5.67;3.62;;;;;;;13.28;65.75;100628.97;1685692;85;21227;-57
2023/07/13 01:58:32;;;;;;;5.55;3.58;;;;;;;13.26;65.88;100626.92;1685718;85;21894;-55
2023/07/13 02:01:39;;;;;;;5.55;3.22;;;;;;;13.27;66.10;100618.16;1685727;84;21382;-55
2023/07/13 02:04:45;;;;;;;4.05;3.02;;;;;;;13.29;66.28;100622.42;1685720;85;21913;-57
2023/07/13 02:07:52;;;;;;;7.25;3.52;;;;;;;13.32;66.43;100621.18;1685722;84;21789;-56
2023/07/13 02:10:58;;;;;;;4.67;3.20;;;;;;;13.33;66.43;100609.16;1685699;83;21373;-56
2023/07/13 02:14:05;;;;;;;6.58;3.20;;;;;;;13.32;66.33;100608.30;1685718;85;21409;-57
2023/07/13 02:17:13;;;;;;;5.92;3.67;;;;;;;13.33;66.31;100607.78;1685747;84;21220;-56
2023/07/13 02:20:21;;;;;;;7.42;3.72;;;;;;;13.37;66.54;100614.59;1668207;85;21365;-57
2023/07/13 02:23:28;;;;;;;6.53;4.12;;;;;;;13.44;66.81;100613.68;1690534;84;21470;-56
2023/07/13 02:26:34;;;;;;;12.40;5.22;;;;;;;13.52;67.03;100612.19;1685732;84;21410;-55
2023/07/13 02:29:40;;;;;;;6.92;4.03;;;;;;;13.61;67.18;100606.59;1687860;79;21358;-56
2023/07/13 02:32:45;;;;;;;6.85;4.42;;;;;;;13.71;67.30;100605.80;1685700;83;21941;-56
2023/07/13 02:35:53;;;;;;;9.73;4.58;;;;;;;13.79;67.40;100604.32;1689790;84;21271;-56
2023/07/13 02:38:58;;;;;;;5.87;4.40;;;;;;;13.89;67.52;100609.02;1685877;85;21361;-57
2023/07/13 02:42:03;;;;;;;7.12;3.90;;;;;;;13.99;67.63;100610.92;1685694;84;21365;-57
2023/07/13 02:45:09;;;;;;;6.42;4.25;;;;;;;14.10;67.75;100614.56;1685675;85;21373;-56
2023/07/13 02:48:17;;;;;;;8.20;4.17;;;;;;;14.20;67.82;100623.37;1685678;85;21390;-55
2023/07/13 02:51:22;;;;;;;7.95;3.95;;;;;;;14.31;67.89;100629.28;1686170;84;21416;-54
2023/07/13 02:54:29;;;;;;;6.35;4.03;;;;;;;14.43;67.93;100633.77;1685711;84;21413;-54
2023/07/13 02:57:35;;;;;;;4.90;3.85;;;;;;;14.53;67.99;100638.42;1685770;84;21361;-55
2023/07/13 03:00:46;;;;;;;4.75;3.40;;;;;;;14.63;68.07;100643.97;1685703;84;21389;-55
2023/07/13 03:03:53;;;;;;;5.22;3.67;;;;;;;14.74;68.10;100637.94;1685736;85;21402;-54
2023/07/13 03:07:00;;;;;;;5.22;3.67;;;;;;;14.84;68.14;100634.84;1686271;84;21362;-55
2023/07/13 03:10:07;;;;;;;8.55;3.47;;;;;;;14.97;68.19;100641.84;1685691;85;21374;-56
2023/07/13 03:13:14;;;;;;;10.98;4.00;;;;;;;15.10;68.20;100646.11;1685723;85;21402;-61
2023/07/13 03:16:22;;;;;;;6.03;3.90;;;;;;;15.21;68.27;100630.91;1667739;83;21502;-60
2023/07/13 03:19:28;;;;;;;7.50;3.80;;;;;;;15.33;68.28;100638.47;1679062;84;21228;-59
2023/07/13 03:22:36;;;;;;;9.00;4.28;;;;;;;15.43;68.33;100648.64;1685709;84;21362;-60
2023/07/13 03:25:44;;;;;;;6.12;3.80;;;;;;;15.52;68.33;100637.80;1669462;83;21295;-60
2023/07/13 03:28:52;;;;;;;5.62;3.67;;;;;;;15.65;68.39;100636.48;1685726;84;21354;-60
2023/07/13 03:31:59;;;;;;;8.75;4.33;;;;;;;15.77;68.41;100637.64;1686411;82;21390;-61
2023/07/13 03:35:06;;;;;;;7.53;3.72;;;;;;;15.88;68.39;100638.45;1685692;84;21373;-59
2023/07/13 03:38:12;;;;;;;9.28;4.22;;;;;;;16.00;68.32;100631.80;1666803;84;21334;-59
2023/07/13 03:41:20;;;;;;;8.73;4.22;;;;;;;16.09;68.28;100636.11;1693147;83;21428;-60
2023/07/13 03:44:27;;;;;;;5.55;4.10;;;;;;;16.19;68.31;100633.28;1686218;84;21357;-58
2023/07/13 03:47:34;;;;;;;7.60;4.00;;;;;;;16.31;68.27;100633.55;1685679;84;21416;-61
2023/07/13 03:50:41;;;;;;;12.00;5.42;;;;;;;16.40;68.29;100634.55;1685629;84;21460;-61
2023/07/13 03:53:51;;;;;;;10.48;5.35;;;;;;;16.51;68.23;100651.08;1685756;84;21381;-60
2023/07/13 03:56:58;;;;;;;10.10;4.62;;;;;;;16.57;68.16;100644.71;1685630;84;21377;-60
2023/07/13 04:00:05;;;;;;;7.15;4.10;;;;;;;16.62;68.14;100652.41;1685715;85;21358;-59
2023/07/13 04:03:11;;;;;;;6.53;4.20;;;;;;;16.66;68.14;100661.97;1685705;84;21412;-60
2023/07/13 04:06:29;;;;;;;8.65;4.37;;;;;;;16.71;68.15;100662.20;1686022;84;21490;-59
2023/07/13 04:09:36;;;;;;;6.62;4.20;;;;;;;16.75;68.22;100656.05;1686106;84;21922;-59
2023/07/13 04:12:44;;;;;;;7.78;4.12;;;;;;;16.84;68.32;100656.72;1686002;84;21374;-61
2023/07/13 04:15:50;;;;;;;7.90;4.40;;;;;;;16.91;68.34;100653.41;1685989;84;21405;-60
2023/07/13 04:18:54;;;;;;;9.60;4.28;;;;;;;16.96;68.33;100644.81;1685730;85;21342;-60
2023/07/13 04:21:45;;;;;;;12.28;3.87;;;;;;;17.04;68.37;100643.76;1685757;83;21381;-61
2023/07/13 04:24:32;;;;;;;6.75;3.77;;;;;;;17.14;68.40;100638.67;1685741;83;21365;-59
2023/07/13 04:27:26;;;;;;;7.12;3.90;;;;;;;17.27;68.41;100635.88;1685749;84;21397;-60
2023/07/13 04:30:13;;;;;;;9.25;3.70;;;;;;;17.41;68.43;100630.69;1685777;84;21917;-59
2023/07/13 04:33:13;;;;;;;6.87;3.60;;;;;;;17.55;68.43;100629.64;1670892;84;21905;-57
2023/07/13 04:36:20;;;;;;;8.05;3.98;;;;;;;17.71;68.42;100627.80;1698932;83;21424;-59
2023/07/13 04:39:27;;;;;;;5.90;3.70;;;;;;;17.89;68.33;100641.28;1699004;84;21364;-60
2023/07/13 04:42:35;;;;;;;5.67;3.35;;;;;;;18.04;68.19;100626.32;1698838;83;21466;-60
2023/07/13 04:45:44;;;;;;;7.25;3.70;;;;;;;18.16;68.07;100624.56;1710462;82;21361;-61
2023/07/13 04:48:53;;;;;;;9.00;4.25;;;;;;;18.26;67.98;100633.27;1697046;84;21242;-61
2023/07/13 04:51:57;;;;;;;7.42;4.70;;;;;;;18.32;67.93;100631.86;1696332;84;21241;-63
2023/07/13 04:54:56;;;;;;;7.72;4.12;;;;;;;18.37;67.86;100629.28;1696052;84;21199;-59
2023/07/13 04:58:03;;;;;;;8.05;3.67;;;;;;;18.41;67.80;100630.56;1695911;84;21246;-62
2023/07/13 05:01:15;;;;;;;16.05;8.78;;;;;;;18.42;67.79;100629.52;1695050;83;21430;-54
2023/07/13 05:04:21;;;;;;;7.03;4.05;;;;;;;18.42;67.72;100630.90;1695402;84;21388;-55
2023/07/13 05:07:29;;;;;;;7.22;4.08;;;;;;;18.47;67.77;100633.01;1674092;83;21409;-57
2023/07/13 05:10:34;;;;;;;6.62;4.47;;;;;;;18.49;67.72;100638.62;1656783;85;21396;-56
2023/07/13 05:13:42;;;;;;;10.48;5.25;;;;;;;18.52;67.72;100641.52;1657011;86;21388;-55
2023/07/13 05:17:03;;;;;;;8.50;5.42;;;;;;;18.53;67.73;100640.44;1664138;84;21368;-54
2023/07/13 05:20:09;;;;;;;7.05;4.37;;;;;;;18.55;67.78;100636.91;1667672;85;21255;-54
2023/07/13 05:23:16;;;;;;;6.55;4.78;;;;;;;18.58;67.77;100640.63;1686001;82;21385;-56
2023/07/13 05:26:47;;;;;;;12.33;5.58;;;;;;;18.63;67.80;100641.64;1723603;83;21370;-54
2023/07/13 05:29:57;;;;;;;9.50;5.72;;;;;;;18.69;67.84;100648.24;1725082;81;21940;-54
2023/07/13 05:33:04;;;;;;;11.75;5.15;;;;;;;18.74;67.76;100646.48;1725959;81;21412;-56
2023/07/13 05:36:10;;;;;;;12.78;4.75;;;;;;;18.80;67.76;100645.62;1699601;82;21393;-55
2023/07/13 05:39:16;;;;;;;18.82;10.95;;;;;;;18.90;67.79;100643.19;1685988;83;21245;-55
2023/07/13 05:42:23;;;;;;;8.10;4.58;;;;;;;19.01;67.71;100643.03;1687345;82;21761;-53
2023/07/13 05:45:28;;;;;;;10.63;4.67;;;;;;;19.11;67.67;100651.69;1685701;85;21230;-55
2023/07/13 05:48:36;;;;;;;7.42;4.60;;;;;;;19.20;67.63;100651.19;1686397;85;21266;-56
2023/07/13 05:51:41;;;;;;;7.10;4.28;;;;;;;19.31;67.65;100651.88;1699601;83;21384;-56
2023/07/13 05:54:47;;;;;;;12.30;4.62;;;;;;;19.42;67.61;100651.70;1712635;82;21361;-49
2023/07/13 05:57:57;;;;;;;6.10;4.30;;;;;;;19.52;67.62;100644.25;1714458;83;21226;-52
2023/07/13 06:01:18;;;;;;;7.80;4.05;;;;;;;19.63;67.55;100654.06;1715012;83;21881;-56
2023/07/13 06:04:28;;;;;;;10.48;4.25;;;;;;;19.74;67.53;100645.53;1700293;81;21318;-57
2023/07/13 06:07:34;;;;;;;7.00;4.42;;;;;;;19.91;67.48;100642.47;1710976;83;21267;-56
2023/07/13 06:10:44;;;;;;;7.78;4.15;;;;;;;20.08;67.50;100637.99;1706994;83;21255;-56
2023/07/13 06:13:51;;;;;;;8.03;4.10;;;;;;;20.23;67.40;100630.99;1712858;82;21293;-57
2023/07/13 06:16:57;;;;;;;11.03;3.87;;;;;;;20.40;67.31;100646.52;1710964;84;21766;-55
2023/07/13 06:20:03;;;;;;;5.83;3.60;;;;;;;20.55;67.22;100651.98;1711939;82;21300;-57
2023/07/13 06:23:09;;;;;;;6.75;3.40;;;;;;;20.68;67.11;100653.20;1712077;82;21213;-56
2023/07/13 06:26:16;;;;;;;6.30;3.65;;;;;;;20.83;66.97;100654.18;1697152;83;21376;-56
2023/07/13 06:29:22;;;;;;;5.85;3.58;;;;;;;20.94;66.82;100649.20;1654091;86;21366;-55
2023/07/13 06:32:27;;;;;;;10.88;5.33;;;;;;;20.99;66.67;100645.20;1684486;83;21291;-56
2023/07/13 06:35:36;;;;;;;10.45;3.98;;;;;;;21.07;66.56;100653.22;1690680;82;21794;-57
2023/07/13 06:38:43;;;;;;;7.72;4.10;;;;;;;21.15;66.48;100658.45;1684183;84;21785;-57
2023/07/13 06:41:49;;;;;;;5.90;4.10;;;;;;;21.21;66.42;100657.48;1654453;85;21923;-56
2023/07/13 06:44:54;;;;;;;6.10;3.87;;;;;;;21.31;66.33;100653.55;1679723;84;21254;-53
2023/07/13 06:47:59;;;;;;;6.92;3.62;;;;;;;21.42;66.27;100647.16;1714203;80;21366;-53
2023/07/13 06:51:07;;;;;;;5.70;3.55;;;;;;;21.58;66.17;100649.80;1715536;81;21438;-53
2023/07/13 06:54:13;;;;;;;6.95;3.50;;;;;;;21.70;66.00;100646.47;1698832;80;21976;-55
2023/07/13 06:57:23;;;;;;;6.42;3.83;;;;;;;21.82;65.90;100641.23;1712013;82;21454;-54
2023/07/13 07:00:43;;;;;;;9.10;3.50;;;;;;;21.89;65.78;100637.78;1714996;82;21252;-58
2023/07/13 07:03:49;;;;;;;8.58;3.45;;;;;;;21.96;65.73;100639.88;1721715;81;21359;-53
2023/07/13 07:06:56;;;;;;;13.43;5.90;;;;;;;22.01;65.69;100630.78;1702473;83;21235;-54
2023/07/13 07:10:04;;;;;;;4.97;4.30;;;;;;;22.05;65.63;100625.89;1656102;86;21233;-54
2023/07/13 07:13:12;;;;;;;5.60;4.00;;;;;;;22.11;65.59;100615.69;1655343;86;21233;-54
2023/07/13 07:16:18;;;;;;;6.17;4.03;;;;;;;22.18;65.57;100622.81;1655855;85;21257;-54
2023/07/13 07:19:25;;;;;;;8.53;5.62;;;;;;;22.27;65.54;100616.86;1656442;86;21306;-59
2023/07/13 07:22:32;;;;;;;6.50;3.95;;;;;;;22.36;65.51;100614.83;1657339;84;21253;-60
2023/07/13 07:25:41;;;;;;;7.08;3.65;;;;;;;22.44;65.41;100608.87;1684126;84;21237;-60
2023/07/13 07:28:46;;;;;;;8.13;3.70;;;;;;;22.53;65.33;100611.62;1681839;83;21752;-60
2023/07/13 07:32:02;;;;;;;9.38;4.20;;;;;;;22.66;65.29;100610.47;1707768;81;21243;-58
2023/07/13 07:35:23;;;;;;;6.78;3.70;;;;;;;22.76;65.14;100628.80;1675497;83;21449;-62
2023/07/13 07:38:30;;;;;;;10.38;3.50;;;;;;;22.84;64.95;100618.62;1694536;84;21276;-58
2023/07/13 07:41:37;;;;;;;8.58;3.72;;;;;;;22.91;64.82;100608.99;1694553;84;21254;-60
2023/07/13 07:44:50;;;;;;;8.78;3.62;;;;;;;23.00;64.69;100610.84;1694655;84;21721;-59
2023/07/13 07:52:09;;;;;;;9.33;3.67;;;;;;;23.16;64.45;100608.09;1719378;81;21314;-61
2023/07/13 07:55:39;;;;;;;11.85;5.35;;;;;;;23.29;64.30;100613.92;1719897;81;21509;-60
2023/07/13 08:02:51;;;;;;;6.70;3.33;;;;;;;23.43;63.95;100616.68;1705428;81;21252;-55
2023/07/13 08:06:01;;;;;;;5.03;3.35;;;;;;;23.53;63.70;100609.87;1695865;83;21290;-57
2023/07/13 08:09:09;;;;;;;8.20;3.98;;;;;;;23.61;63.55;100599.63;1688764;82;21264;-56
2023/07/13 08:12:16;;;;;;;7.15;3.65;;;;;;;23.71;63.32;100608.19;1688375;83;21741;-52
2023/07/13 08:15:27;;;;;;;6.37;3.10;;;;;;;23.76;63.03;100606.02;1690792;83;21278;-52
2023/07/13 08:18:34;;;;;;;5.78;3.45;;;;;;;23.82;62.86;100610.60;1691421;83;21390;-53
2023/07/13 08:21:42;;;;;;;7.72;3.70;;;;;;;23.89;62.69;100610.70;1728188;82;21630;-53
2023/07/13 08:24:54;;;;;;;7.83;3.33;;;;;;;23.98;62.53;100615.33;1681220;82;21267;-53
2023/07/13 08:27:56;;;;;;;7.90;3.35;;;;;;;24.07;62.39;100613.22;1692069;82;21869;-52
2023/07/13 08:31:02;;;;;;;9.20;3.52;;;;;;;24.17;62.21;100619.52;1683946;83;21235;-52
2023/07/13 08:34:15;;;;;;;8.65;3.12;;;;;;;24.28;62.07;100614.34;1700445;81;21208;-53
2023/07/13 08:37:20;;;;;;;5.92;3.25;;;;;;;24.36;61.87;100604.96;1723397;81;21266;-52
2023/07/13 08:40:29;;;;;;;4.75;2.85;;;;;;;24.43;61.67;100607.02;1717969;82;21251;-54
2023/07/13 08:43:37;;;;;;;5.87;3.08;;;;;;;24.53;61.54;100609.10;1709855;82;21463;-53
2023/07/13 08:46:46;;;;;;;8.23;2.70;;;;;;;24.63;61.39;100607.26;1704466;82;21272;-52
2023/07/13 08:49:52;;;;;;;3.33;2.72;;;;;;;24.73;61.19;100620.02;1686666;84;21582;-53
2023/07/13 08:52:57;;;;;;;8.75;2.92;;;;;;;24.79;60.87;100611.95;1702527;83;21284;-53
2023/07/13 08:56:05;;;;;;;8.00;2.72;;;;;;;24.85;60.62;100605.30;1719606;82;21770;-52
2023/07/13 08:59:23;;;;;;;3.70;2.80;;;;;;;24.94;60.38;100600.08;1703349;83;21263;-51
2023/07/13 09:02:57;;;;;;;7.75;3.10;;;;;;;25.01;60.16;100603.50;1712242;83;21235;-51
2023/07/13 09:06:06;;;;;;;9.03;3.20;;;;;;;25.09;60.03;100610.02;1712150;82;21231;-49
2023/07/13 09:09:17;;;;;;;5.08;3.25;;;;;;;25.19;59.83;100606.47;1712030;83;21799;-49
2023/07/13 09:12:44;;;;;;;7.90;3.00;;;;;;;25.27;59.55;100612.45;1712165;83;21255;-52
2023/07/13 09:15:52;;;;;;;3.87;3.08;;;;;;;25.32;59.26;100612.50;1702073;82;21910;-52
2023/07/13 09:19:02;;;;;;;5.65;3.20;;;;;;;25.39;59.04;100608.94;1684270;84;21208;-52
2023/07/13 09:22:11;;;;;;;6.15;3.50;;;;;;;25.48;58.88;100607.32;1683575;84;21306;-51
2023/07/13 09:25:41;;;;;;;4.67;2.50;;;;;;;25.58;58.60;100589.73;1687892;83;21258;-50
2023/07/13 09:28:52;;;;;;;7.33;2.92;;;;;;;25.64;58.31;100589.50;1683206;85;21231;-50
2023/07/13 09:32:03;;;;;;;7.20;2.77;;;;;;;25.74;58.15;100586.78;1683980;84;21236;-51
2023/07/13 09:35:12;;;;;;;8.10;3.27;;;;;;;25.82;57.83;100579.81;1690029;83;21470;-50
2023/07/13 09:38:26;;;;;;;5.22;3.10;;;;;;;25.89;57.61;100585.50;1684605;84;21249;-51
2023/07/13 09:41:43;;;;;;;8.40;3.25;;;;;;;25.96;57.37;100580.47;1685017;85;21271;-55
2023/07/13 09:45:02;;;;;;;5.17;3.08;;;;;;;26.05;57.19;100579.44;1684737;84;21722;-53
2023/07/13 09:48:14;;;;;;;6.30;2.87;;;;;;;26.10;56.92;100573.28;1684348;85;21222;-54
2023/07/13 09:51:22;;;;;;;4.00;2.80;;;;;;;26.22;56.82;100575.87;1685327;85;21233;-53
2023/07/13 09:54:31;;;;;;;4.62;2.87;;;;;;;26.35;56.66;100566.95;1685556;84;21371;-54
2023/07/13 09:57:37;;;;;;;3.92;2.75;;;;;;;26.47;56.46;100570.36;1689121;83;21389;-53
2023/07/13 10:00:45;;;;;;;5.62;2.42;;;;;;;26.59;56.17;100574.34;1695547;83;21859;-53
2023/07/13 10:04:03;;;;;;;8.48;2.75;;;;;;;26.66;55.87;100572.98;1709231;83;21299;-51
2023/07/13 10:07:18;;;;;;;9.55;3.30;;;;;;;26.73;55.63;100571.31;1714077;83;21406;-56
2023/07/13 10:10:32;;;;;;;5.30;2.75;;;;;;;26.80;55.33;100567.11;1684311;83;21283;-51
2023/07/13 10:13:44;;;;;;;6.00;3.30;;;;;;;26.83;55.07;100582.00;1704941;83;21241;-54
2023/07/13 10:16:53;;;;;;;4.62;3.30;;;;;;;26.87;54.92;100578.94;1662980;84;21248;-51
2023/07/13 10:19:59;;;;;;;7.15;3.45;;;;;;;26.99;54.75;100569.67;1685028;82;21382;-52
2023/07/13 10:23:13;;;;;;;3.98;3.22;;;;;;;27.09;54.51;100563.22;1696673;82;21228;-53
2023/07/13 10:26:26;;;;;;;3.72;2.95;;;;;;;27.17;54.24;100559.31;1684865;84;21399;-55
2023/07/13 10:29:35;;;;;;;7.65;4.80;;;;;;;27.26;53.98;100563.27;1667804;85;21341;-53
2023/07/13 10:32:41;;;;;;;11.63;5.67;;;;;;;27.35;53.77;100562.98;1684815;84;21371;-52
2023/07/13 10:35:50;;;;;;;9.00;3.65;;;;;;;27.54;53.69;100562.69;1692743;84;21398;-51
2023/07/13 10:38:56;;;;;;;8.43;3.77;;;;;;;27.72;53.54;100562.66;1725685;82;21374;-53
2023/07/13 10:42:11;;;;;;;7.37;3.77;;;;;;;27.85;53.20;100561.53;1739113;81;21845;-51
2023/07/13 10:45:27;;;;;;;3.98;3.30;;;;;;;27.98;52.94;100555.05;1695956;84;21224;-51
2023/07/13 10:48:34;;;;;;;7.83;4.33;;;;;;;28.07;52.63;100558.98;1691745;84;21263;-52
2023/07/13 10:51:41;;;;;;;10.78;5.15;;;;;;;27.99;52.16;100558.98;1738508;81;21418;-50
2023/07/13 10:54:44;;;;;;;4.10;3.25;;;;;;;27.95;51.83;100559.84;1742554;81;21412;-51
2023/07/13 10:57:37;;;;;;;9.48;4.58;;;;;;;27.96;51.60;100560.11;1724526;82;21351;-57
2023/07/13 11:00:24;;;;;;;18.12;9.93;;;;;;;28.08;51.49;100559.25;1710437;83;21736;-58
2023/07/13 11:03:23;;;;;;;16.82;7.08;;;;;;;28.26;51.39;100552.41;1719527;82;21969;-57
2023/07/13 11:06:46;;;;;;;22.55;12.28;;;;;;;28.51;50.95;100552.91;1720271;83;21827;-54
2023/07/13 11:10:03;;;;;;;7.20;4.05;;;;;;;28.51;50.95;100552.91;1708232;83;21754;-56
2023/07/13 11:13:14;;;;;;;6.60;3.95;;;;;;;28.70;50.67;100538.44;1715315;83;21950;-57
2023/07/13 11:16:27;;;;;;;6.72;3.70;;;;;;;28.92;50.50;100531.21;1720169;83;21374;-57
2023/07/13 11:19:38;;;;;;;6.95;3.60;;;;;;;29.16;50.33;100524.33;1719346;83;21362;-54
2023/07/13 11:22:59;;;;;;;6.30;3.60;;;;;;;29.36;50.04;100520.47;1717665;81;21199;-56
2023/07/13 11:26:06;;;;;;;7.83;3.33;;;;;;;29.49;49.70;100519.22;1708153;83;21891;-59
2023/07/13 11:29:32;;;;;;;5.17;3.35;;;;;;;29.52;49.26;100514.95;1692870;84;21457;-58
2023/07/13 11:32:44;;;;;;;6.53;3.05;;;;;;;29.48;48.97;100510.47;1703600;82;21457;-53
2023/07/13 11:36:21;;;;;;;4.85;2.92;;;;;;;29.56;48.26;100503.36;1707043;82;21785;-54
2023/07/13 11:39:40;;;;;;;4.67;3.00;;;;;;;29.56;48.26;100503.36;1708804;82;21236;-55
2023/07/13 11:42:49;;;;;;;7.22;3.35;;;;;;;29.52;48.20;100505.92;1691705;82;21548;-55
2023/07/13 11:46:04;;;;;;;5.97;3.02;;;;;;;29.35;47.98;100501.31;1688330;78;21240;-56
2023/07/13 11:49:12;;;;;;;6.30;3.35;;;;;;;29.20;47.77;100500.02;1698460;83;21820;-58
2023/07/13 11:52:31;;;;;;;5.60;3.20;;;;;;;29.12;47.71;100497.83;1693476;81;21922;-58
2023/07/13 11:55:51;;;;;;;11.10;4.10;;;;;;;29.07;47.56;100492.23;1687554;83;21398;-52
2023/07/13 11:59:44;;;;;;;5.53;2.80;;;;;;;29.00;47.42;100481.25;1678677;83;21279;-54
2023/07/13 12:03:00;;;;;;;5.80;3.10;;;;;;;28.96;47.38;100477.91;1693591;83;21236;-58
2023/07/13 12:06:14;;;;;;;13.08;8.45;;;;;;;28.89;47.02;100470.38;1692951;83;21227;-57
2023/07/13 12:09:25;;;;;;;5.97;4.05;;;;;;;28.86;47.02;100458.28;1694817;84;21192;-58
2023/07/13 12:12:32;;;;;;;8.83;3.92;;;;;;;28.86;47.02;100458.28;1694762;83;21232;-57
2023/07/13 12:15:48;;;;;;;4.97;3.30;;;;;;;28.96;46.59;100449.72;1666756;84;21800;-59
2023/07/13 12:18:55;;;;;;;8.05;3.47;;;;;;;28.96;46.59;100449.72;1667928;84;21215;-58
2023/07/13 12:22:02;;;;;;;5.20;3.27;;;;;;;28.95;46.92;100443.26;1675402;84;21245;-60
2023/07/13 12:25:10;;;;;;;4.05;2.92;;;;;;;29.00;46.86;100445.19;1696426;83;21692;-57
2023/07/13 12:28:42;;;;;;;7.40;4.70;;;;;;;29.13;46.78;100445.36;1695710;83;21200;-58
2023/07/13 12:31:52;;;;;;;3.72;2.98;;;;;;;29.33;46.75;100440.66;1668100;84;21799;-59
2023/07/13 12:35:05;;;;;;;6.17;3.17;;;;;;;29.49;46.37;100448.68;1696277;83;21317;-57
2023/07/13 12:38:10;;;;;;;7.53;3.30;;;;;;;29.46;46.03;100445.05;1692263;83;21343;-59
2023/07/13 12:41:20;;;;;;;17.35;10.55;;;;;;;29.49;45.86;100443.04;1696156;84;21403;-58
2023/07/13 12:44:32;;;;;;;7.80;4.05;;;;;;;29.76;45.92;100439.66;1658284;84;21257;-58
2023/07/13 12:47:40;;;;;;;9.08;5.20;;;;;;;29.76;45.92;100439.66;1679025;85;21827;-54
2023/07/13 12:50:51;;;;;;;5.37;3.92;;;;;;;29.96;45.42;100433.74;1674050;84;21331;-55
2023/07/13 12:54:00;;;;;;;7.90;3.75;;;;;;;30.10;45.15;100438.35;1639138;85;21254;-54
2023/07/13 12:57:09;;;;;;;6.33;3.20;;;;;;;30.16;44.87;100432.90;1655884;85;21240;-55
2023/07/13 13:00:44;;;;;;;4.17;2.70;;;;;;;30.19;44.73;100435.70;1697661;84;21312;-55
2023/07/13 13:03:56;;;;;;;5.30;3.10;;;;;;;30.18;44.49;100423.56;1690529;85;21267;-54
2023/07/13 13:07:13;;;;;;;7.30;4.47;;;;;;;30.05;44.17;100430.53;1697375;84;21229;-55
2023/07/13 13:10:21;;;;;;;6.17;2.95;;;;;;;29.89;44.02;100431.28;1658607;84;21205;-55
2023/07/13 13:13:29;;;;;;;4.95;3.15;;;;;;;29.79;44.03;100421.55;1675631;84;21796;-55
2023/07/13 13:16:38;;;;;;;7.72;2.80;;;;;;;29.76;44.01;100423.56;1682840;84;21228;-55
2023/07/13 13:19:45;;;;;;;9.33;3.22;;;;;;;29.70;44.00;100416.28;1681214;84;21261;-54
2023/07/13 13:22:50;;;;;;;3.58;2.77;;;;;;;29.76;44.07;100409.45;1682986;85;22068;-55
2023/07/13 13:25:58;;;;;;;5.90;3.20;;;;;;;29.89;44.04;100413.52;1683992;83;21216;-54
2023/07/13 13:29:04;;;;;;;6.20;2.77;;;;;;;29.90;43.84;100408.98;1684421;85;21233;-54
2023/07/13 13:32:12;;;;;;;6.67;2.90;;;;;;;29.88;43.75;100416.91;1676721;83;21300;-56
2023/07/13 13:35:26;;;;;;;5.42;3.12;;;;;;;29.81;43.39;100406.53;1684111;85;21734;-55
2023/07/13 13:38:36;;;;;;;4.47;2.90;;;;;;;29.74;43.63;100403.26;1680572;85;21276;-55
2023/07/13 13:41:42;;;;;;;3.75;3.10;;;;;;;29.72;43.56;100410.33;1667797;85;21265;-56
2023/07/13 13:44:48;;;;;;;4.65;3.02;;;;;;;29.59;43.50;100417.50;1676941;85;21255;-55
2023/07/13 13:47:55;;;;;;;7.97;3.25;;;;;;;29.46;43.47;100411.75;1673366;84;21292;-55
2023/07/13 13:51:01;;;;;;;5.90;3.22;;;;;;;29.28;43.27;100397.84;1682870;84;21801;-57
2023/07/13 13:54:08;;;;;;;4.95;2.92;;;;;;;29.28;43.27;100397.84;1683225;84;21232;-55
2023/07/13 13:57:15;;;;;;;6.70;2.72;;;;;;;29.29;43.50;100391.64;1665760;83;21224;-54
2023/07/13 14:00:23;;;;;;;10.08;2.92;;;;;;;29.36;43.40;100392.11;1683352;85;21603;-55
2023/07/13 14:03:29;;;;;;;7.40;2.90;;;;;;;29.45;43.42;100382.69;1683259;84;21204;-59
2023/07/13 14:06:35;;;;;;;7.03;2.90;;;;;;;29.56;43.31;100374.96;1683879;85;21248;-60
2023/07/13 14:09:40;;;;;;;8.43;2.92;;;;;;;29.64;43.39;100378.50;1674859;85;21212;-56
2023/07/13 14:12:47;;;;;;;7.90;2.80;;;;;;;29.60;43.27;100361.92;1669947;85;21357;-58
2023/07/13 14:15:54;;;;;;;6.92;3.02;;;;;;;29.45;43.11;100355.06;1654436;84;21834;-56
2023/07/13 14:19:01;;;;;;;8.58;3.60;;;;;;;29.26;43.11;100356.98;1664710;85;21470;-56
2023/07/13 14:22:07;;;;;;;9.63;3.35;;;;;;;28.98;43.66;100340.32;1655117;85;21300;-55
2023/07/13 14:25:15;;;;;;;13.22;2.92;;;;;;;28.98;43.66;100340.32;1683625;85;21439;-57
2023/07/13 14:28:33;;;;;;;7.37;3.00;;;;;;;28.90;43.46;100336.73;1656301;85;21209;-55
2023/07/13 14:31:39;;;;;;;7.35;3.20;;;;;;;28.90;43.46;100336.73;1628613;86;21425;-55
2023/07/13 14:34:46;;;;;;;7.08;2.92;;;;;;;28.88;43.42;100327.73;1628676;88;21385;-55
2023/07/13 14:37:52;;;;;;;5.15;3.10;;;;;;;28.95;43.46;100315.55;1657139;85;21242;-55
2023/07/13 14:40:58;;;;;;;5.15;2.87;;;;;;;29.03;43.50;100312.90;1664696;85;21228;-55
2023/07/13 14:44:05;;;;;;;9.10;3.25;;;;;;;29.01;43.49;100315.76;1686818;84;21768;-55